Arlington, WY

4:24 PM MST on December 03, 2016 (GMT -0700)
WYDOT | | Change Station
Active Advisory: High Wind Warning

Elev 7727 ft 41.62 °N, 106.24 °W | Updated 24 minutes ago

Clear
Clear
17.0 °F
Feels Like -3 °F
N
32.0
Wind Variable Wind from SSW
Gusts 38.0 mph

Today
High -- | Low -- °F
--% Chance of Precip.
Yesterday
High -- | Low -- °F
Precip. -- in
Pressure 29.96 in
Visibility 10.0 miles
Clouds Clear
Windchill -3 °F
Dew Point 13.0 °F
Humidity 84%
Rainfall in
Snow Depth Not available.
7:14 AM 4:35 PM
Waxing Crescent, 18% visible
METAR KEHY 032315Z AUTO 25017G26KT 10SM CLR M06/M10 A2996 RMK AO2
Pressure 29.96 in
Visibility 10.0 miles
Clouds Clear
Windchill -3 °F
Dew Point 13.0 °F
Humidity 84%
Rainfall in
Snow Depth Not available.
7:14 AM 4:35 PM
Waxing Crescent, 18% visible
METAR KEHY 032315Z AUTO 25017G26KT 10SM CLR M06/M10 A2996 RMK AO2

10-Day Weather Forecast

Almanac

Astronomy

Dec. 03, 2016 Rise Set
Actual Time
Civil Twilight
Nautical Twilight
Astronomical Twilight
Moon
Length of Visible Light
Length of Day
Tomorrow will be .
, % of the Moon is Illuminated

Today's Extremes

State Highs State Lows

Community

WunderPhotos

Upload Photos

1,955,540 photos uploaded!

WunderBlog® & News

Nearby

Air Quality

  Air Quality AQ Index Pollutant
Not available.

Snow Depth

Station Depth Elevation

Earthquake Activity

City Distance Mag. Time & Date
Minimum magnitude displayed is 2.5.

Coastal Water Temperatures

Place Temperature

Stations

Nearby Weather Stations

Station Location Temp. Windchill Dew Point Humidity Wind Precip. Elev Updated Type
                   

Watches & Warnings

High Wind Warning
Issued: 1:57 PM MST Dec. 3, 2016 – National Weather Service

... High Wind Warning in effect from 8 am Sunday to 8 am MST
Monday...

The National Weather Service in Cheyenne has issued a High Wind
Warning... which is in effect from 8 am Sunday to 8 am MST Monday.
The high wind watch is no longer in effect.

* Timing... Sunday morning through Monday morning. Strongest winds
will likely occur Sunday night.

* Winds... southwest 35 to 45 mph gusting to around 65 mph.

* Impacts... mainly to transportation. Strong and gusty
Crosswinds will pose a significant blow over risk for high
profile and lightweight vehicles.

Precautionary/preparedness actions...

A High Wind Warning means a hazardous high wind event is expected
or occurring. Sustained wind speeds of at least 40 mph or gusts
of 58 mph or higher can lead to property damage and travel
difficulties.